createdAt,value
2018-03-11T00:00:21.512Z,6.77
2018-03-11T00:01:21.574Z,6.83
2018-03-11T00:02:21.603Z,6.83
2018-03-11T00:03:21.645Z,6.80
2018-03-11T00:04:21.691Z,6.81
2018-03-11T00:05:21.733Z,6.80
2018-03-11T00:06:21.795Z,6.76
2018-03-11T00:07:21.823Z,6.81
2018-03-11T00:08:21.883Z,6.77
2018-03-11T00:09:21.913Z,6.79
2018-03-11T00:10:21.960Z,6.79
2018-03-11T00:11:22.001Z,6.90
2018-03-11T00:12:22.047Z,6.90
2018-03-11T00:13:22.108Z,6.90
2018-03-11T00:14:22.133Z,7.08
2018-03-11T00:15:22.174Z,7.15
2018-03-11T00:16:22.222Z,7.20
2018-03-11T00:17:22.283Z,7.35
2018-03-11T00:18:22.321Z,7.42
2018-03-11T00:19:22.369Z,7.45
2018-03-11T00:20:22.398Z,7.55
2018-03-11T00:21:22.444Z,7.59
2018-03-11T00:22:22.489Z,7.59
2018-03-11T00:23:22.533Z,7.71
2018-03-11T00:24:22.591Z,7.79
2018-03-11T00:25:22.622Z,7.81
2018-03-11T00:26:22.664Z,7.78
2018-03-11T00:27:22.709Z,7.96
2018-03-11T00:28:22.753Z,7.93
2018-03-11T00:29:22.813Z,7.92
2018-03-11T00:30:22.840Z,8.03
2018-03-11T00:31:22.890Z,8.08
2018-03-11T00:32:22.931Z,8.15
2018-03-11T00:33:22.991Z,8.10
2018-03-11T00:34:23.020Z,8.12
2018-03-11T00:35:23.079Z,8.22
2018-03-11T00:36:23.108Z,8.25
2018-03-11T00:37:23.153Z,8.29
2018-03-11T00:38:23.199Z,8.36
2018-03-11T00:39:23.251Z,8.45
2018-03-11T00:40:23.302Z,8.53
2018-03-11T00:41:23.333Z,8.68
2018-03-11T00:42:23.376Z,8.73
2018-03-11T00:43:23.440Z,8.68
2018-03-11T00:44:23.466Z,8.78
2018-03-11T00:45:23.533Z,8.79
2018-03-11T00:46:23.555Z,8.75
2018-03-11T00:47:23.600Z,8.88
2018-03-11T00:48:23.644Z,8.94
2018-03-11T00:49:23.691Z,9.06
2018-03-11T00:50:23.752Z,9.15
2018-03-11T00:51:23.780Z,9.16
2018-03-11T00:52:23.824Z,9.25
2018-03-11T00:53:23.873Z,9.25
2018-03-11T00:54:23.930Z,9.21
2018-03-11T00:55:23.963Z,9.20
2018-03-11T00:56:24.004Z,9.24
2018-03-11T00:57:24.049Z,9.18
2018-03-11T00:58:24.093Z,9.31
2018-03-11T00:59:24.154Z,9.31
2018-03-11T01:00:24.186Z,9.30
2018-03-11T01:01:24.228Z,9.30
2018-03-11T01:02:24.274Z,9.34
2018-03-11T01:03:24.318Z,9.39
2018-03-11T01:04:24.383Z,9.31
2018-03-11T01:05:24.410Z,9.46
2018-03-11T01:06:24.453Z,9.52
2018-03-11T01:07:24.498Z,9.58
2018-03-11T01:08:24.545Z,9.63
2018-03-11T01:09:24.605Z,9.61
2018-03-11T01:10:24.636Z,9.64
2018-03-11T01:11:24.679Z,9.70
2018-03-11T01:12:24.724Z,9.66
2018-03-11T01:13:24.786Z,9.58
2018-03-11T01:14:24.818Z,9.63
2018-03-11T01:15:24.876Z,9.49
2018-03-11T01:16:24.909Z,9.49
2018-03-11T01:17:24.950Z,9.48
2018-03-11T01:18:25.010Z,9.48
2018-03-11T01:19:25.046Z,9.50
2018-03-11T01:20:25.100Z,9.49
2018-03-11T01:21:25.134Z,9.56
2018-03-11T01:22:25.178Z,9.57
2018-03-11T01:23:25.237Z,9.56
2018-03-11T01:24:25.268Z,9.61
2018-03-11T01:25:25.313Z,9.68
2018-03-11T01:26:25.358Z,9.64
2018-03-11T01:27:25.403Z,9.68
2018-03-11T01:28:25.464Z,9.73
2018-03-11T01:29:25.495Z,9.64
2018-03-11T01:30:25.544Z,9.66
2018-03-11T01:31:25.607Z,9.76
2018-03-11T01:32:25.633Z,9.70
2018-03-11T01:33:25.675Z,9.75
2018-03-11T01:34:25.725Z,9.60
2018-03-11T01:35:25.761Z,9.66
2018-03-11T01:36:25.827Z,9.57
2018-03-11T01:37:25.875Z,9.58
2018-03-11T01:38:25.902Z,9.53
2018-03-11T01:39:25.947Z,9.53
2018-03-11T01:40:25.994Z,9.52
2018-03-11T01:41:26.043Z,9.53
2018-03-11T01:42:26.101Z,9.48
2018-03-11T01:43:26.138Z,9.48
2018-03-11T01:44:26.177Z,9.46
2018-03-11T01:45:26.228Z,9.43
2018-03-11T01:46:26.265Z,9.48
2018-03-11T01:47:26.327Z,9.48
2018-03-11T01:48:26.358Z,9.49
2018-03-11T01:49:26.406Z,9.50
2018-03-11T01:50:26.446Z,9.39
2018-03-11T01:51:26.497Z,9.39
2018-03-11T01:52:26.561Z,9.34
2018-03-11T01:53:26.583Z,9.42
2018-03-11T01:54:26.629Z,9.45
2018-03-11T01:55:26.674Z,9.52
2018-03-11T01:56:26.722Z,9.52
2018-03-11T01:57:26.783Z,9.49
2018-03-11T01:58:26.851Z,9.49
2018-03-11T01:59:26.858Z,9.49
2018-03-11T02:00:26.905Z,9.56
2018-03-11T02:01:26.947Z,9.58
2018-03-11T02:02:26.997Z,9.76
2018-03-11T02:03:27.055Z,9.75
2018-03-11T02:04:27.084Z,9.63
2018-03-11T02:05:27.128Z,9.64
2018-03-11T02:06:27.175Z,9.70
2018-03-11T02:07:27.219Z,9.71
2018-03-11T02:08:27.287Z,9.75
2018-03-11T02:09:27.329Z,9.83
2018-03-11T02:10:27.360Z,9.82
2018-03-11T02:11:27.402Z,9.86
2018-03-11T02:12:27.446Z,9.91
2018-03-11T02:13:27.509Z,9.85
2018-03-11T02:14:27.541Z,9.88
2018-03-11T02:15:27.586Z,9.86
2018-03-11T02:16:27.629Z,9.85
2018-03-11T02:17:27.674Z,9.82
2018-03-11T02:18:27.733Z,9.94
2018-03-11T02:19:27.780Z,9.85
2018-03-11T02:20:27.810Z,9.81
2018-03-11T02:21:27.856Z,9.83
2018-03-11T02:22:27.901Z,9.88
2018-03-11T02:23:27.963Z,9.88
2018-03-11T02:24:27.996Z,9.96
2018-03-11T02:25:28.039Z,10.10
2018-03-11T02:26:28.083Z,10.00
2018-03-11T02:27:28.129Z,10.01
2018-03-11T02:28:28.193Z,9.89
2018-03-11T02:29:28.221Z,9.97
2018-03-11T02:30:28.286Z,10.01
2018-03-11T02:31:28.312Z,9.96
2018-03-11T02:32:28.357Z,9.96
2018-03-11T02:33:28.404Z,9.97
2018-03-11T02:34:28.453Z,9.96
2018-03-11T02:35:28.510Z,9.96
2018-03-11T02:36:28.539Z,9.89
2018-03-11T02:37:28.588Z,9.85
2018-03-11T02:38:28.635Z,9.82
2018-03-11T02:39:28.697Z,9.88
2018-03-11T02:40:28.725Z,9.81
2018-03-11T02:41:28.784Z,9.83
2018-03-11T02:42:28.816Z,9.85
2018-03-11T02:43:28.863Z,9.86
2018-03-11T02:44:28.905Z,9.91
2018-03-11T02:45:28.951Z,9.75
2018-03-11T02:46:29.010Z,9.81
2018-03-11T02:47:29.040Z,9.94
2018-03-11T02:48:29.088Z,9.93
2018-03-11T02:49:29.133Z,9.96
2018-03-11T02:50:29.181Z,9.94
2018-03-11T02:51:29.242Z,9.93
2018-03-11T02:52:29.271Z,9.96
2018-03-11T02:53:29.318Z,10.14
2018-03-11T02:54:29.363Z,10.12
2018-03-11T02:55:29.408Z,10.32
2018-03-11T02:56:29.469Z,10.26
2018-03-11T02:57:29.504Z,10.26
2018-03-11T02:58:29.542Z,10.28
2018-03-11T02:59:29.594Z,10.26
2018-03-11T03:00:29.636Z,10.24
2018-03-11T03:01:29.696Z,10.14
2018-03-11T03:02:29.740Z,10.15
2018-03-11T03:03:29.775Z,10.14
2018-03-11T03:04:29.817Z,10.25
2018-03-11T03:05:29.863Z,10.24
2018-03-11T03:06:29.931Z,10.25
2018-03-11T03:07:29.957Z,10.34
2018-03-11T03:08:30.000Z,10.42
2018-03-11T03:09:30.049Z,10.36
2018-03-11T03:10:30.094Z,10.28
2018-03-11T03:11:30.153Z,10.28
2018-03-11T03:12:30.193Z,10.25
2018-03-11T03:13:30.254Z,10.22
2018-03-11T03:14:30.282Z,10.17
2018-03-11T03:15:30.321Z,10.17
2018-03-11T03:16:30.368Z,10.15
2018-03-11T03:17:30.414Z,10.14
2018-03-11T03:18:30.472Z,10.17
2018-03-11T03:19:30.504Z,10.07
2018-03-11T03:20:30.554Z,10.15
2018-03-11T03:21:30.599Z,10.10
2018-03-11T03:22:30.642Z,10.07
2018-03-11T03:23:30.703Z,10.03
2018-03-11T03:24:31.538Z,10.25
2018-03-11T03:25:30.788Z,10.32
2018-03-11T03:26:30.827Z,10.47
2018-03-11T03:27:30.873Z,10.52
2018-03-11T03:28:30.935Z,10.62
2018-03-11T03:29:30.961Z,10.65
2018-03-11T03:30:31.008Z,10.59
2018-03-11T03:31:31.055Z,10.56
2018-03-11T03:32:31.102Z,10.53
2018-03-11T03:33:31.164Z,10.62
2018-03-11T03:34:31.189Z,10.55
2018-03-11T03:35:31.236Z,10.53
2018-03-11T03:36:31.282Z,10.51
2018-03-11T03:37:31.329Z,10.44
2018-03-11T03:38:31.441Z,10.53
2018-03-11T03:39:31.422Z,10.37
2018-03-11T03:40:31.469Z,10.37
2018-03-11T03:41:31.513Z,10.34
2018-03-11T03:42:31.558Z,10.36
2018-03-11T03:43:31.622Z,10.42
2018-03-11T03:44:31.651Z,10.42
2018-03-11T03:45:31.696Z,10.43
2018-03-11T03:46:31.760Z,10.21
2018-03-11T03:47:31.787Z,10.14
2018-03-11T03:48:31.837Z,10.17
2018-03-11T03:49:31.883Z,10.10
2018-03-11T03:50:31.928Z,9.94
2018-03-11T03:51:31.988Z,10.01
2018-03-11T03:52:32.017Z,9.99
2018-03-11T03:53:32.067Z,9.96
2018-03-11T03:54:32.109Z,9.79
2018-03-11T03:55:32.155Z,9.91
2018-03-11T03:56:32.219Z,9.82
2018-03-11T03:57:32.246Z,9.93
2018-03-11T03:58:32.321Z,9.82
2018-03-11T03:59:32.337Z,9.85
2018-03-11T04:00:32.386Z,9.82
2018-03-11T04:01:32.446Z,9.88
2018-03-11T04:02:32.476Z,9.86
2018-03-11T04:03:32.522Z,9.85
2018-03-11T04:04:32.584Z,9.85
2018-03-11T04:05:32.616Z,9.89
2018-03-11T04:06:32.669Z,9.81
2018-03-11T04:07:32.704Z,9.86
2018-03-11T04:08:32.751Z,9.94
2018-03-11T04:09:32.815Z,9.91
2018-03-11T04:10:32.843Z,10.14
2018-03-11T04:11:32.888Z,10.15
2018-03-11T04:12:32.933Z,10.21
2018-03-11T04:13:32.979Z,10.15
2018-03-11T04:14:33.042Z,10.07
2018-03-11T04:15:33.070Z,10.07
2018-03-11T04:16:33.116Z,9.99
2018-03-11T04:17:33.164Z,9.96
2018-03-11T04:18:33.211Z,9.96
2018-03-11T04:19:33.271Z,10.07
2018-03-11T04:20:33.298Z,10.12
2018-03-11T04:21:33.347Z,10.14
2018-03-11T04:22:33.389Z,10.28
2018-03-11T04:23:33.435Z,10.32
2018-03-11T04:24:33.501Z,10.33
2018-03-11T04:25:33.529Z,10.37
2018-03-11T04:26:33.575Z,10.37
2018-03-11T04:27:33.621Z,10.40
2018-03-11T04:28:33.665Z,10.52
2018-03-11T04:29:33.734Z,10.51
2018-03-11T04:30:33.760Z,10.52
2018-03-11T04:31:33.801Z,10.47
2018-03-11T04:32:33.849Z,10.28
2018-03-11T04:33:33.894Z,10.15
2018-03-11T04:34:33.956Z,10.03
2018-03-11T04:35:34.009Z,9.86
2018-03-11T04:36:34.032Z,9.70
2018-03-11T04:37:34.081Z,9.18
2018-03-11T04:38:34.123Z,9.04
2018-03-11T04:39:34.179Z,8.91
2018-03-11T04:40:34.231Z,8.71
2018-03-11T04:41:34.260Z,8.40
2018-03-11T04:42:34.305Z,8.30
2018-03-11T04:43:34.356Z,8.25
2018-03-11T04:44:34.399Z,8.12
2018-03-11T04:45:34.459Z,8.08
2018-03-11T04:46:34.490Z,7.89
2018-03-11T04:47:34.542Z,7.85
2018-03-11T04:48:34.581Z,7.71
2018-03-11T04:49:34.625Z,7.59
2018-03-11T04:50:34.685Z,7.44
2018-03-11T04:51:34.730Z,7.50
2018-03-11T04:52:34.765Z,7.42
2018-03-11T04:53:34.806Z,7.53
2018-03-11T04:54:34.848Z,7.42
2018-03-11T04:55:34.896Z,7.37
2018-03-11T04:56:34.958Z,7.34
2018-03-11T04:57:34.988Z,7.22
2018-03-11T04:58:35.030Z,7.29
2018-03-11T04:59:35.078Z,7.13
2018-03-11T05:00:35.120Z,7.15
2018-03-11T05:01:35.186Z,7.07
2018-03-11T05:02:35.209Z,6.95
2018-03-11T05:03:35.256Z,6.86
2018-03-11T05:04:35.300Z,6.90
2018-03-11T05:05:35.343Z,6.80
2018-03-11T05:06:35.404Z,6.80
2018-03-11T05:07:35.436Z,6.72
2018-03-11T05:08:35.480Z,6.72
2018-03-11T05:09:35.523Z,6.66
2018-03-11T05:10:35.566Z,6.61
2018-03-11T05:11:35.637Z,6.63
2018-03-11T05:12:35.673Z,6.62
2018-03-11T05:13:35.703Z,6.63
2018-03-11T05:14:35.747Z,6.59
2018-03-11T05:15:35.790Z,6.66
2018-03-11T05:16:35.834Z,6.66
2018-03-11T05:17:35.900Z,6.72
2018-03-11T05:18:35.923Z,6.68
2018-03-11T05:19:35.967Z,6.79
2018-03-11T05:20:36.012Z,6.72
2018-03-11T05:21:36.056Z,6.76
2018-03-11T05:22:36.117Z,6.66
2018-03-11T05:23:36.144Z,6.73
2018-03-11T05:24:36.191Z,6.72
2018-03-11T05:25:36.241Z,6.72
2018-03-11T05:26:36.277Z,6.72
2018-03-11T05:27:36.340Z,6.66
2018-03-11T05:28:36.368Z,6.54
2018-03-11T05:29:36.414Z,6.44
2018-03-11T05:30:36.452Z,6.33
2018-03-11T05:31:36.505Z,6.33
2018-03-11T05:32:36.558Z,6.19
2018-03-11T05:33:36.594Z,6.10
2018-03-11T05:34:36.628Z,6.14
2018-03-11T05:35:36.673Z,6.13
2018-03-11T05:36:36.719Z,6.03
2018-03-11T05:37:36.779Z,5.83
2018-03-11T05:38:36.809Z,5.89
2018-03-11T05:39:36.849Z,5.82
2018-03-11T05:40:36.895Z,5.77
2018-03-11T05:41:36.953Z,5.77
2018-03-11T05:42:36.985Z,5.75
2018-03-11T05:43:37.038Z,5.73
2018-03-11T05:44:37.074Z,5.77
2018-03-11T05:45:37.112Z,5.81
2018-03-11T05:46:37.154Z,5.85
2018-03-11T05:47:37.200Z,5.74
2018-03-11T05:48:37.258Z,5.75
2018-03-11T05:49:37.286Z,5.70
2018-03-11T05:50:37.338Z,5.68
2018-03-11T05:51:37.373Z,5.66
2018-03-11T05:52:37.416Z,5.53
2018-03-11T05:53:37.477Z,5.45
2018-03-11T05:54:37.504Z,5.37
2018-03-11T05:55:37.556Z,5.30
2018-03-11T05:56:37.591Z,5.32
2018-03-11T05:57:37.635Z,5.31
2018-03-11T05:58:37.702Z,5.31
2018-03-11T05:59:37.738Z,5.22
2018-03-11T06:00:37.765Z,5.22
2018-03-11T06:01:37.810Z,5.10
2018-03-11T06:02:37.852Z,5.02
2018-03-11T06:03:37.898Z,4.91
2018-03-11T06:04:37.955Z,4.83
2018-03-11T06:05:37.983Z,4.79
2018-03-11T06:06:38.025Z,4.67
2018-03-11T06:07:38.070Z,4.73
2018-03-11T06:08:38.113Z,4.65
2018-03-11T06:09:38.175Z,4.59
2018-03-11T06:10:38.201Z,4.65
2018-03-11T06:11:38.242Z,4.62
2018-03-11T06:12:38.288Z,4.64
2018-03-11T06:13:38.330Z,4.77
2018-03-11T06:14:38.388Z,4.89
2018-03-11T06:15:38.418Z,4.92
2018-03-11T06:16:38.462Z,5.04
2018-03-11T06:17:38.501Z,5.09
2018-03-11T06:18:38.545Z,5.23
2018-03-11T06:19:38.603Z,5.31
2018-03-11T06:20:38.631Z,5.28
2018-03-11T06:21:38.677Z,5.34
2018-03-11T06:22:38.718Z,5.40
2018-03-11T06:23:38.760Z,5.50
2018-03-11T06:24:38.825Z,5.57
2018-03-11T06:25:38.845Z,5.60
2018-03-11T06:26:38.889Z,5.63
2018-03-11T06:27:38.932Z,5.60
2018-03-11T06:28:38.974Z,5.60
2018-03-11T06:29:39.044Z,5.63
2018-03-11T06:30:39.062Z,5.53
2018-03-11T06:31:39.106Z,5.53
2018-03-11T06:32:39.150Z,5.66
2018-03-11T06:33:39.192Z,5.71
2018-03-11T06:34:39.256Z,5.74
2018-03-11T06:35:39.280Z,5.82
2018-03-11T06:36:39.320Z,5.70
2018-03-11T06:37:39.368Z,5.74
2018-03-11T06:38:39.412Z,5.75
2018-03-11T06:39:39.479Z,5.86
2018-03-11T06:40:39.496Z,5.83
2018-03-11T06:41:39.540Z,5.95
2018-03-11T06:42:39.580Z,5.95
2018-03-11T06:43:39.627Z,6.00
2018-03-11T06:44:39.687Z,6.07
2018-03-11T06:45:39.712Z,6.09
2018-03-11T06:46:39.757Z,6.11
2018-03-11T06:47:39.804Z,6.04
2018-03-11T06:48:39.842Z,6.11
2018-03-11T06:49:39.903Z,6.11
2018-03-11T06:50:39.929Z,6.09
2018-03-11T06:51:39.972Z,6.14
2018-03-11T06:52:40.022Z,6.03
2018-03-11T06:53:40.063Z,6.07
2018-03-11T06:54:40.119Z,6.11
2018-03-11T06:55:40.166Z,6.16
2018-03-11T06:56:40.191Z,6.16
2018-03-11T06:57:40.235Z,6.14
2018-03-11T06:58:40.280Z,6.25
2018-03-11T06:59:40.321Z,6.22
2018-03-11T07:00:40.383Z,6.33
2018-03-11T07:02:01.434Z,6.38
2018-03-11T07:02:40.453Z,6.36
2018-03-11T07:03:40.495Z,6.32
2018-03-11T07:04:40.541Z,6.36
2018-03-11T07:05:40.607Z,6.40
2018-03-11T07:06:40.638Z,6.44
2018-03-11T07:07:40.672Z,6.56
2018-03-11T07:08:40.717Z,6.51
2018-03-11T07:09:40.760Z,6.61
2018-03-11T07:10:40.832Z,6.62
2018-03-11T07:11:40.847Z,6.43
2018-03-11T07:12:40.890Z,6.33
2018-03-11T07:13:40.937Z,6.29
2018-03-11T07:14:40.982Z,6.11
2018-03-11T07:15:41.037Z,6.11
2018-03-11T07:16:41.083Z,6.04
2018-03-11T07:17:41.116Z,6.07
2018-03-11T07:18:41.156Z,6.09
2018-03-11T07:19:41.203Z,6.16
2018-03-11T07:20:41.246Z,6.26
2018-03-11T07:21:41.304Z,6.28
2018-03-11T07:22:41.333Z,6.38
2018-03-11T07:23:41.379Z,6.38
2018-03-11T07:24:41.422Z,6.41
2018-03-11T07:25:41.461Z,6.56
2018-03-11T07:26:41.523Z,6.63
2018-03-11T07:27:41.567Z,6.66
2018-03-11T07:28:41.595Z,6.73
2018-03-11T07:29:41.638Z,6.80
2018-03-11T07:30:41.682Z,6.90
2018-03-11T07:31:41.727Z,6.90
2018-03-11T07:32:41.793Z,6.97
2018-03-11T07:33:41.830Z,7.08
2018-03-11T07:34:41.860Z,7.04
2018-03-11T07:35:41.905Z,7.13
2018-03-11T07:36:41.949Z,7.15
2018-03-11T07:37:42.009Z,7.17
2018-03-11T07:38:42.037Z,7.22
2018-03-11T07:39:42.097Z,7.32
2018-03-11T07:40:42.126Z,7.29
2018-03-11T07:41:42.172Z,7.42
2018-03-11T07:42:42.214Z,7.47
2018-03-11T07:43:42.264Z,7.44
2018-03-11T07:44:42.319Z,7.47
2018-03-11T07:45:42.355Z,7.44
2018-03-11T07:46:42.392Z,7.49
2018-03-11T07:47:42.439Z,7.52
2018-03-11T07:48:42.483Z,7.55
2018-03-11T07:49:42.547Z,7.62
2018-03-11T07:50:42.577Z,7.59
2018-03-11T07:51:42.617Z,7.63
2018-03-11T07:52:42.663Z,7.81
2018-03-11T07:53:42.706Z,7.84
2018-03-11T07:54:42.770Z,7.92
2018-03-11T07:55:42.799Z,8.15
2018-03-11T07:56:42.841Z,8.25
2018-03-11T07:57:42.889Z,8.42
2018-03-11T07:58:42.939Z,8.44
2018-03-11T07:59:42.997Z,8.51
2018-03-11T08:00:43.022Z,8.57
2018-03-11T08:01:43.068Z,8.62
2018-03-11T08:02:43.113Z,8.68
2018-03-11T08:03:43.158Z,8.62
2018-03-11T08:04:43.223Z,8.65
2018-03-11T08:05:43.252Z,8.81
2018-03-11T08:06:43.298Z,8.72
2018-03-11T08:07:43.339Z,8.81
2018-03-11T08:08:43.386Z,8.87
2018-03-11T08:09:43.454Z,8.79
2018-03-11T08:10:43.474Z,8.87
2018-03-11T08:11:43.528Z,8.86
2018-03-11T08:12:43.567Z,8.91
2018-03-11T08:13:43.615Z,8.99
2018-03-11T08:14:43.686Z,8.99
2018-03-11T08:15:43.708Z,9.05
2018-03-11T08:16:43.751Z,9.06
2018-03-11T08:17:43.800Z,9.12
2018-03-11T08:18:43.849Z,9.13
2018-03-11T08:19:43.905Z,9.04
2018-03-11T08:20:43.952Z,9.12
2018-03-11T08:21:43.981Z,9.04
2018-03-11T08:22:44.029Z,9.24
2018-03-11T08:23:44.072Z,9.16
2018-03-11T08:24:44.117Z,9.30
2018-03-11T08:25:44.194Z,9.32
2018-03-11T08:26:44.225Z,9.35
2018-03-11T08:27:44.256Z,9.39
2018-03-11T08:28:44.305Z,9.57
2018-03-11T08:29:44.353Z,9.70
2018-03-11T08:30:44.400Z,9.82
2018-03-11T08:31:44.456Z,10.00
2018-03-11T08:32:44.487Z,9.91
2018-03-11T08:33:44.533Z,9.79
2018-03-11T08:34:44.580Z,9.57
2018-03-11T08:35:44.631Z,9.57
2018-03-11T08:36:44.697Z,9.61
2018-03-11T08:37:44.734Z,9.53
2018-03-11T08:38:44.765Z,9.49
2018-03-11T08:39:44.810Z,9.45
2018-03-11T08:40:44.857Z,9.49
2018-03-11T08:41:44.922Z,9.82
2018-03-11T08:42:44.957Z,9.93
2018-03-11T08:43:44.996Z,9.88
2018-03-11T08:44:45.043Z,9.63
2018-03-11T08:45:45.089Z,9.20
2018-03-11T08:46:45.151Z,9.09
2018-03-11T08:47:45.181Z,9.09
2018-03-11T08:48:45.251Z,9.13
2018-03-11T08:49:45.274Z,9.16
2018-03-11T08:50:45.332Z,9.15
2018-03-11T08:51:45.365Z,9.21
2018-03-11T08:52:45.416Z,9.28
2018-03-11T08:53:45.619Z,9.35
2018-03-11T08:54:45.504Z,9.38
2018-03-11T08:55:45.553Z,9.38
2018-03-11T08:56:45.600Z,9.49
2018-03-11T08:57:45.654Z,9.34
2018-03-11T08:58:45.715Z,9.38
2018-03-11T08:59:45.752Z,9.34
2018-03-11T09:00:46.551Z,9.21
2018-03-11T09:01:45.839Z,9.21
2018-03-11T09:02:45.876Z,9.27
2018-03-11T09:03:45.925Z,9.31
2018-03-11T09:04:45.986Z,9.38
2018-03-11T09:05:46.016Z,9.42
2018-03-11T09:06:46.063Z,9.52
2018-03-11T09:07:46.108Z,9.52
2018-03-11T09:08:46.156Z,9.60
2018-03-11T09:09:46.217Z,9.64
2018-03-11T09:10:46.247Z,9.73
2018-03-11T09:11:46.291Z,9.86
2018-03-11T09:12:46.341Z,9.85
2018-03-11T09:13:46.384Z,9.93
2018-03-11T09:14:46.450Z,9.93
2018-03-11T09:15:46.508Z,9.88
2018-03-11T09:16:46.523Z,9.68
2018-03-11T09:17:46.569Z,9.58
2018-03-11T09:18:46.616Z,9.67
2018-03-11T09:19:46.667Z,9.42
2018-03-11T09:22:22.993Z,9.32
2018-03-11T09:24:59.009Z,8.88
2018-03-11T09:25:59.056Z,8.93
2018-03-11T09:26:59.079Z,8.93
2018-03-11T09:27:59.126Z,8.93
2018-03-11T09:28:59.172Z,8.84
2018-03-11T09:29:59.219Z,8.84
2018-03-11T09:30:59.281Z,8.81
2018-03-11T09:31:59.312Z,8.84
2018-03-11T09:32:59.357Z,8.81
2018-03-11T09:33:59.405Z,8.84
2018-03-11T09:34:59.450Z,8.81
2018-03-11T09:35:59.511Z,8.79
2018-03-11T09:36:59.546Z,8.83
2018-03-11T09:37:59.588Z,8.84
2018-03-11T09:38:59.639Z,8.87
2018-03-11T09:39:59.680Z,8.76
2018-03-11T09:40:59.744Z,8.84
2018-03-11T09:41:59.770Z,8.81
2018-03-11T09:42:59.820Z,8.83
2018-03-11T09:43:59.863Z,8.88
2018-03-11T09:44:59.912Z,8.84
2018-03-11T09:45:59.970Z,8.88
2018-03-11T09:47:00.002Z,8.84
2018-03-11T09:48:00.048Z,8.99
2018-03-11T09:49:00.112Z,8.91
2018-03-11T09:50:00.141Z,8.93
2018-03-11T09:51:00.188Z,8.91
2018-03-11T09:52:00.248Z,8.90
2018-03-11T09:53:00.279Z,8.83
2018-03-11T09:54:00.322Z,8.94
2018-03-11T09:55:00.387Z,8.93
2018-03-11T09:56:00.415Z,8.93
2018-03-11T09:57:00.472Z,8.90
2018-03-11T09:58:00.505Z,8.93
2018-03-11T09:59:00.553Z,8.93
2018-03-11T10:00:00.618Z,8.79
2018-03-11T10:01:00.646Z,8.87
2018-03-11T10:02:00.695Z,8.96
2018-03-11T10:03:00.736Z,8.87
2018-03-11T10:04:00.800Z,8.94
2018-03-11T10:05:00.828Z,8.99
2018-03-11T10:06:00.898Z,9.05
2018-03-11T10:07:00.918Z,9.15
2018-03-11T10:08:00.968Z,9.06
2018-03-11T10:09:01.027Z,9.13
2018-03-11T10:10:01.058Z,9.10
2018-03-11T10:11:01.102Z,9.20
2018-03-11T10:12:01.167Z,9.16
2018-03-11T10:13:01.195Z,9.27
2018-03-11T10:14:01.257Z,9.21
2018-03-11T10:15:01.287Z,9.31
2018-03-11T10:16:01.349Z,9.32
2018-03-11T10:17:01.394Z,9.32
2018-03-11T10:18:01.425Z,9.38
2018-03-11T10:19:01.496Z,9.38
2018-03-11T10:20:01.517Z,9.43
2018-03-11T10:21:01.563Z,9.48
2018-03-11T10:22:01.614Z,9.46
2018-03-11T10:23:01.662Z,9.32
2018-03-11T10:24:01.720Z,9.43
2018-03-11T10:25:01.756Z,9.50
2018-03-11T10:26:01.793Z,9.46
2018-03-11T10:27:01.894Z,9.50
2018-03-11T10:28:01.886Z,9.50
2018-03-11T10:29:01.953Z,9.56
2018-03-11T10:30:01.979Z,9.56
2018-03-11T10:31:02.027Z,9.56
2018-03-11T10:32:02.085Z,9.52
2018-03-11T10:33:02.120Z,9.58
2018-03-11T10:34:02.182Z,9.67
2018-03-11T10:35:02.234Z,9.68
2018-03-11T10:36:02.258Z,9.79
2018-03-11T10:37:02.305Z,9.82
2018-03-11T10:38:02.351Z,9.91
2018-03-11T10:39:02.492Z,9.86
2018-03-11T10:40:02.462Z,9.81
2018-03-11T10:41:02.490Z,9.91
2018-03-11T10:42:02.534Z,9.96
2018-03-11T10:43:02.584Z,9.91
2018-03-11T10:44:02.628Z,9.96
2018-03-11T10:45:02.705Z,9.93
2018-03-11T10:46:02.728Z,9.97
2018-03-11T10:47:02.769Z,10.04
2018-03-11T10:48:02.815Z,10.10
2018-03-11T10:49:02.867Z,10.28
2018-03-11T10:50:03.003Z,10.32
2018-03-11T10:51:02.973Z,10.36
2018-03-11T10:52:03.003Z,10.40
2018-03-11T10:53:03.086Z,10.40
2018-03-11T10:54:03.096Z,10.04
2018-03-11T10:55:03.144Z,9.83
2018-03-11T10:56:03.205Z,9.83
2018-03-11T10:57:03.255Z,9.57
2018-03-11T10:58:03.280Z,9.45
2018-03-11T10:59:03.328Z,9.34
2018-03-11T11:00:03.386Z,9.24
2018-03-11T11:01:03.437Z,9.21
2018-03-11T11:02:03.476Z,9.25
2018-03-11T11:03:03.531Z,9.31
2018-03-11T11:04:03.561Z,9.42
2018-03-11T11:05:03.610Z,9.42
2018-03-11T11:06:03.654Z,9.31
2018-03-11T11:07:03.720Z,9.38
2018-03-11T11:08:03.763Z,9.24
2018-03-11T11:09:03.797Z,9.16
2018-03-11T11:10:03.842Z,9.18
2018-03-11T11:11:03.889Z,9.15
2018-03-11T11:12:03.938Z,9.18
2018-03-11T11:13:03.998Z,9.20
2018-03-11T11:14:04.026Z,9.21
2018-03-11T11:15:04.073Z,9.21
2018-03-11T11:16:04.120Z,9.32
2018-03-11T11:17:04.166Z,9.30
2018-03-11T11:18:04.226Z,9.38
2018-03-11T11:19:04.274Z,9.31
2018-03-11T11:20:04.318Z,9.32
2018-03-11T11:21:04.350Z,9.32
2018-03-11T11:22:04.396Z,9.35
2018-03-11T11:23:04.460Z,9.38
2018-03-11T11:25:40.608Z,9.35
2018-03-11T11:26:40.602Z,9.31
2018-03-11T11:27:40.647Z,9.34
2018-03-11T11:28:40.715Z,9.38
2018-03-11T11:29:40.736Z,9.34
2018-03-11T11:30:40.783Z,9.30
2018-03-11T11:31:40.831Z,9.40
2018-03-11T11:32:40.903Z,9.45
2018-03-11T11:33:40.940Z,9.46
2018-03-11T11:34:40.967Z,9.53
2018-03-11T11:35:41.014Z,9.48
2018-03-11T11:36:41.057Z,9.57
2018-03-11T11:37:41.104Z,9.58
2018-03-11T11:38:41.170Z,9.57
2018-03-11T11:39:41.213Z,9.63
2018-03-11T11:40:41.245Z,9.76
2018-03-11T11:41:41.291Z,9.75
2018-03-11T11:42:41.336Z,9.71
2018-03-11T11:43:41.402Z,9.79
2018-03-11T11:44:41.430Z,9.73
2018-03-11T11:45:41.476Z,9.79
2018-03-11T11:46:41.521Z,9.85
2018-03-11T11:47:41.575Z,9.86
2018-03-11T11:48:41.689Z,9.85
2018-03-11T11:49:41.665Z,9.88
2018-03-11T11:50:41.706Z,9.85
2018-03-11T11:51:41.752Z,9.81
2018-03-11T11:52:41.803Z,9.85
2018-03-11T11:53:41.860Z,9.85
2018-03-11T11:56:17.796Z,9.82
2018-03-11T11:57:17.826Z,9.86
2018-03-11T11:58:17.874Z,9.83
2018-03-11T11:59:17.920Z,9.89
2018-03-11T12:00:17.984Z,9.71
2018-03-11T12:01:18.014Z,9.58
2018-03-11T12:02:18.061Z,9.60
2018-03-11T12:03:18.102Z,9.58
2018-03-11T12:04:18.154Z,9.68
2018-03-11T12:05:18.249Z,9.70
2018-03-11T12:06:18.247Z,9.64
2018-03-11T12:07:18.287Z,9.67
2018-03-11T12:08:18.336Z,9.81
2018-03-11T12:10:55.043Z,9.88
2018-03-11T12:11:55.074Z,9.83
2018-03-11T12:12:55.123Z,9.94
2018-03-11T12:13:55.168Z,10.00
2018-03-11T12:14:55.215Z,10.21
2018-03-11T12:15:55.276Z,10.19
2018-03-11T12:16:55.308Z,10.37
2018-03-11T12:17:55.353Z,10.46
2018-03-11T12:18:55.407Z,10.51
2018-03-11T12:19:55.446Z,10.55
2018-03-11T12:20:55.518Z,10.58
2018-03-11T12:21:55.541Z,10.60
2018-03-11T12:22:55.589Z,10.56
2018-03-11T12:23:55.633Z,10.66
2018-03-11T12:24:55.682Z,10.71
2018-03-11T12:25:55.754Z,10.77
2018-03-11T12:26:55.774Z,10.84
2018-03-11T12:27:55.821Z,10.86
2018-03-11T12:28:55.873Z,10.59
2018-03-11T12:29:55.919Z,10.63
2018-03-11T12:30:55.984Z,10.70
2018-03-11T12:31:56.011Z,10.60
2018-03-11T12:32:56.057Z,10.63
2018-03-11T12:33:56.105Z,10.73
2018-03-11T12:34:56.156Z,10.76
2018-03-11T12:35:56.215Z,10.84
2018-03-11T12:36:56.250Z,10.91
2018-03-11T12:37:56.316Z,10.94
2018-03-11T12:38:56.342Z,10.98
2018-03-11T12:39:56.391Z,10.55
2018-03-11T12:40:56.436Z,10.25
2018-03-11T12:41:56.498Z,10.17
2018-03-11T12:42:56.528Z,10.28
2018-03-11T12:43:56.576Z,10.46
2018-03-11T12:44:56.623Z,10.52
2018-03-11T12:45:56.962Z,10.47
2018-03-11T12:46:56.737Z,10.62
2018-03-11T12:47:56.780Z,10.59
2018-03-11T12:48:56.812Z,10.62
2018-03-11T12:49:56.859Z,10.78
2018-03-11T12:50:56.913Z,10.71
2018-03-11T12:51:56.954Z,10.84
2018-03-11T12:52:57.019Z,10.76
2018-03-11T12:53:57.051Z,10.84
2018-03-11T12:54:57.098Z,10.92
2018-03-11T12:55:57.142Z,10.95
2018-03-11T12:56:57.190Z,11.02
2018-03-11T12:57:57.256Z,11.11
2018-03-11T12:58:57.285Z,11.20
2018-03-11T12:59:57.333Z,11.24
2018-03-11T13:00:57.380Z,11.32
2018-03-11T13:01:57.430Z,11.25
2018-03-11T13:02:57.492Z,11.31
2018-03-11T13:03:57.524Z,11.28
2018-03-11T13:04:57.572Z,11.29
2018-03-11T13:05:57.622Z,11.34
2018-03-11T13:06:57.665Z,11.32
2018-03-11T13:07:57.729Z,11.24
2018-03-11T13:08:57.815Z,11.20
2018-03-11T13:09:57.813Z,11.17
2018-03-11T13:10:57.866Z,11.09
2018-03-11T13:11:57.905Z,11.07
2018-03-11T13:12:57.975Z,10.99
2018-03-11T13:13:58.014Z,11.01
2018-03-11T13:14:58.052Z,11.02
2018-03-11T13:15:58.093Z,10.92
2018-03-11T13:16:58.141Z,10.96
2018-03-11T13:17:58.188Z,10.92
2018-03-11T13:18:58.251Z,10.81
2018-03-11T13:19:58.284Z,10.94
2018-03-11T13:20:58.330Z,10.91
2018-03-11T13:21:58.414Z,10.91